sensor_id;sensor_type;location;lat;lon;timestamp;temperature;humidity
5689;DHT22;2869;50.432;8.680;2023-08-08T00:00:57;13.90;99.90
5689;DHT22;2869;50.432;8.680;2023-08-08T00:03:24;13.90;99.90
5689;DHT22;2869;50.432;8.680;2023-08-08T00:05:51;13.90;99.90
5689;DHT22;2869;50.432;8.680;2023-08-08T00:08:19;14.00;99.90
5689;DHT22;2869;50.432;8.680;2023-08-08T00:10:45;14.00;99.90
5689;DHT22;2869;50.432;8.680;2023-08-08T00:13:12;14.00;99.90
5689;DHT22;2869;50.432;8.680;2023-08-08T00:15:39;14.00;99.90
5689;DHT22;2869;50.432;8.680;2023-08-08T00:18:05;14.00;99.90
5689;DHT22;2869;50.432;8.680;2023-08-08T00:20:32;14.00;99.90
5689;DHT22;2869;50.432;8.680;2023-08-08T00:22:59;14.00;99.90
5689;DHT22;2869;50.432;8.680;2023-08-08T00:25:27;14.10;99.90
5689;DHT22;2869;50.432;8.680;2023-08-08T00:27:53;14.10;99.90
5689;DHT22;2869;50.432;8.680;2023-08-08T00:30:20;14.10;99.90
5689;DHT22;2869;50.432;8.680;2023-08-08T00:32:47;14.10;99.90
5689;DHT22;2869;50.432;8.680;2023-08-08T00:35:13;14.10;99.90
5689;DHT22;2869;50.432;8.680;2023-08-08T00:37:41;14.10;99.90
5689;DHT22;2869;50.432;8.680;2023-08-08T00:40:08;14.10;99.90
5689;DHT22;2869;50.432;8.680;2023-08-08T00:42:36;14.10;99.90
5689;DHT22;2869;50.432;8.680;2023-08-08T00:45:03;14.10;99.90
5689;DHT22;2869;50.432;8.680;2023-08-08T00:47:31;14.10;99.90
5689;DHT22;2869;50.432;8.680;2023-08-08T00:49:58;14.10;99.90
5689;DHT22;2869;50.432;8.680;2023-08-08T00:52:25;14.10;99.90
5689;DHT22;2869;50.432;8.680;2023-08-08T00:54:52;14.10;99.90
5689;DHT22;2869;50.432;8.680;2023-08-08T00:57:19;14.00;99.90
5689;DHT22;2869;50.432;8.680;2023-08-08T00:59:48;14.00;99.90
5689;DHT22;2869;50.432;8.680;2023-08-08T01:02:14;14.00;99.90
5689;DHT22;2869;50.432;8.680;2023-08-08T01:04:41;14.00;99.90
5689;DHT22;2869;50.432;8.680;2023-08-08T01:07:12;13.90;99.90
5689;DHT22;2869;50.432;8.680;2023-08-08T01:09:46;13.90;99.90
5689;DHT22;2869;50.432;8.680;2023-08-08T01:12:15;13.90;99.90
5689;DHT22;2869;50.432;8.680;2023-08-08T01:14:42;13.80;99.90
5689;DHT22;2869;50.432;8.680;2023-08-08T01:17:12;13.80;99.90
5689;DHT22;2869;50.432;8.680;2023-08-08T01:19:40;13.80;99.90
5689;DHT22;2869;50.432;8.680;2023-08-08T01:22:16;13.70;99.90
5689;DHT22;2869;50.432;8.680;2023-08-08T01:24:48;13.80;99.90
5689;DHT22;2869;50.432;8.680;2023-08-08T01:27:15;13.80;99.90
5689;DHT22;2869;50.432;8.680;2023-08-08T01:29:42;13.70;99.90
5689;DHT22;2869;50.432;8.680;2023-08-08T01:32:09;13.70;99.90
5689;DHT22;2869;50.432;8.680;2023-08-08T01:34:36;13.70;99.90
5689;DHT22;2869;50.432;8.680;2023-08-08T01:37:06;13.70;99.90
5689;DHT22;2869;50.432;8.680;2023-08-08T01:39:38;13.70;99.90
5689;DHT22;2869;50.432;8.680;2023-08-08T01:42:07;13.70;99.90
5689;DHT22;2869;50.432;8.680;2023-08-08T01:44:35;13.60;99.90
5689;DHT22;2869;50.432;8.680;2023-08-08T01:47:02;13.60;99.90
5689;DHT22;2869;50.432;8.680;2023-08-08T01:49:29;13.60;99.90
5689;DHT22;2869;50.432;8.680;2023-08-08T01:51:56;13.60;99.90
5689;DHT22;2869;50.432;8.680;2023-08-08T01:54:22;13.60;99.90
5689;DHT22;2869;50.432;8.680;2023-08-08T01:56:49;13.50;99.90
5689;DHT22;2869;50.432;8.680;2023-08-08T01:59:17;13.50;99.90
5689;DHT22;2869;50.432;8.680;2023-08-08T02:01:44;13.50;99.90
5689;DHT22;2869;50.432;8.680;2023-08-08T02:04:10;13.50;99.90
5689;DHT22;2869;50.432;8.680;2023-08-08T02:06:37;13.50;99.90
5689;DHT22;2869;50.432;8.680;2023-08-08T02:09:03;13.50;99.90
5689;DHT22;2869;50.432;8.680;2023-08-08T02:11:31;13.50;99.90
5689;DHT22;2869;50.432;8.680;2023-08-08T02:13:58;13.50;99.90
5689;DHT22;2869;50.432;8.680;2023-08-08T02:16:26;13.50;99.90
5689;DHT22;2869;50.432;8.680;2023-08-08T02:18:52;13.50;99.90
5689;DHT22;2869;50.432;8.680;2023-08-08T02:21:19;13.50;99.90
5689;DHT22;2869;50.432;8.680;2023-08-08T02:23:45;13.50;99.90
5689;DHT22;2869;50.432;8.680;2023-08-08T02:26:12;13.50;99.90
5689;DHT22;2869;50.432;8.680;2023-08-08T02:28:39;13.50;99.90
5689;DHT22;2869;50.432;8.680;2023-08-08T02:31:06;13.40;99.90
5689;DHT22;2869;50.432;8.680;2023-08-08T02:33:34;13.40;99.90
5689;DHT22;2869;50.432;8.680;2023-08-08T02:36:01;13.40;99.90
5689;DHT22;2869;50.432;8.680;2023-08-08T02:38:27;13.40;99.90
5689;DHT22;2869;50.432;8.680;2023-08-08T02:40:54;13.40;99.90
5689;DHT22;2869;50.432;8.680;2023-08-08T02:43:21;13.40;99.90
5689;DHT22;2869;50.432;8.680;2023-08-08T02:45:47;13.40;99.90
5689;DHT22;2869;50.432;8.680;2023-08-08T02:48:14;13.40;99.90
5689;DHT22;2869;50.432;8.680;2023-08-08T02:50:42;13.50;99.90
5689;DHT22;2869;50.432;8.680;2023-08-08T02:53:08;13.40;99.90
5689;DHT22;2869;50.432;8.680;2023-08-08T02:55:36;13.40;99.90
5689;DHT22;2869;50.432;8.680;2023-08-08T02:58:03;13.40;99.90
5689;DHT22;2869;50.432;8.680;2023-08-08T03:00:29;13.40;99.90
5689;DHT22;2869;50.432;8.680;2023-08-08T03:02:56;13.40;99.90
5689;DHT22;2869;50.432;8.680;2023-08-08T03:05:23;13.40;99.90
5689;DHT22;2869;50.432;8.680;2023-08-08T03:07:51;13.40;99.90
5689;DHT22;2869;50.432;8.680;2023-08-08T03:10:17;13.40;99.90
5689;DHT22;2869;50.432;8.680;2023-08-08T03:12:44;13.50;99.90
5689;DHT22;2869;50.432;8.680;2023-08-08T03:15:11;13.40;99.90
5689;DHT22;2869;50.432;8.680;2023-08-08T03:17:37;13.40;99.90
5689;DHT22;2869;50.432;8.680;2023-08-08T03:20:06;13.40;99.90
5689;DHT22;2869;50.432;8.680;2023-08-08T03:22:32;13.40;99.90
5689;DHT22;2869;50.432;8.680;2023-08-08T03:25:00;13.40;99.90
5689;DHT22;2869;50.432;8.680;2023-08-08T03:27:29;13.40;99.90
5689;DHT22;2869;50.432;8.680;2023-08-08T03:29:56;13.30;99.90
5689;DHT22;2869;50.432;8.680;2023-08-08T03:32:23;13.30;99.90
5689;DHT22;2869;50.432;8.680;2023-08-08T03:34:49;13.40;99.90
5689;DHT22;2869;50.432;8.680;2023-08-08T03:37:16;13.30;99.90
5689;DHT22;2869;50.432;8.680;2023-08-08T03:39:43;13.30;99.90
5689;DHT22;2869;50.432;8.680;2023-08-08T03:42:11;13.20;99.90
5689;DHT22;2869;50.432;8.680;2023-08-08T03:44:37;13.20;99.90
5689;DHT22;2869;50.432;8.680;2023-08-08T03:47:04;13.20;99.90
5689;DHT22;2869;50.432;8.680;2023-08-08T03:49:31;13.20;99.90
5689;DHT22;2869;50.432;8.680;2023-08-08T03:51:57;13.20;99.90
5689;DHT22;2869;50.432;8.680;2023-08-08T03:54:24;13.20;99.90
5689;DHT22;2869;50.432;8.680;2023-08-08T03:56:51;13.20;99.90
5689;DHT22;2869;50.432;8.680;2023-08-08T03:59:18;13.20;99.90
5689;DHT22;2869;50.432;8.680;2023-08-08T04:01:45;13.30;99.90
5689;DHT22;2869;50.432;8.680;2023-08-08T04:04:12;13.30;99.90
5689;DHT22;2869;50.432;8.680;2023-08-08T04:06:38;13.30;99.90
5689;DHT22;2869;50.432;8.680;2023-08-08T04:09:05;13.30;99.90
5689;DHT22;2869;50.432;8.680;2023-08-08T04:11:32;13.30;99.90
5689;DHT22;2869;50.432;8.680;2023-08-08T04:14:00;13.30;99.90
5689;DHT22;2869;50.432;8.680;2023-08-08T04:16:28;13.40;99.90
5689;DHT22;2869;50.432;8.680;2023-08-08T04:18:55;13.30;99.90
5689;DHT22;2869;50.432;8.680;2023-08-08T04:21:21;13.30;99.90
5689;DHT22;2869;50.432;8.680;2023-08-08T04:23:49;13.40;99.90
5689;DHT22;2869;50.432;8.680;2023-08-08T04:26:15;13.40;99.90
5689;DHT22;2869;50.432;8.680;2023-08-08T04:28:42;13.30;99.90
5689;DHT22;2869;50.432;8.680;2023-08-08T04:31:08;13.30;99.90
5689;DHT22;2869;50.432;8.680;2023-08-08T04:33:36;13.30;99.90
5689;DHT22;2869;50.432;8.680;2023-08-08T04:36:03;13.30;99.90
5689;DHT22;2869;50.432;8.680;2023-08-08T04:38:30;13.30;99.90
5689;DHT22;2869;50.432;8.680;2023-08-08T04:40:56;13.30;99.90
5689;DHT22;2869;50.432;8.680;2023-08-08T04:43:23;13.30;99.90
5689;DHT22;2869;50.432;8.680;2023-08-08T04:45:51;13.40;99.90
5689;DHT22;2869;50.432;8.680;2023-08-08T04:48:17;13.40;99.90
5689;DHT22;2869;50.432;8.680;2023-08-08T04:50:47;13.40;99.90
5689;DHT22;2869;50.432;8.680;2023-08-08T04:53:14;13.50;99.90
5689;DHT22;2869;50.432;8.680;2023-08-08T04:55:40;13.50;99.90
5689;DHT22;2869;50.432;8.680;2023-08-08T04:58:07;13.50;99.90
5689;DHT22;2869;50.432;8.680;2023-08-08T05:00:33;13.50;99.90
5689;DHT22;2869;50.432;8.680;2023-08-08T05:03:00;13.60;99.90
5689;DHT22;2869;50.432;8.680;2023-08-08T05:05:27;13.60;99.90
5689;DHT22;2869;50.432;8.680;2023-08-08T05:07:55;13.70;99.90
5689;DHT22;2869;50.432;8.680;2023-08-08T05:10:22;13.80;99.90
5689;DHT22;2869;50.432;8.680;2023-08-08T05:12:49;13.80;99.90
5689;DHT22;2869;50.432;8.680;2023-08-08T05:15:15;13.90;99.90
5689;DHT22;2869;50.432;8.680;2023-08-08T05:17:42;13.90;99.90
5689;DHT22;2869;50.432;8.680;2023-08-08T05:20:09;14.10;99.90
5689;DHT22;2869;50.432;8.680;2023-08-08T05:22:37;14.20;99.90
5689;DHT22;2869;50.432;8.680;2023-08-08T05:25:06;14.30;99.90
5689;DHT22;2869;50.432;8.680;2023-08-08T05:27:33;14.40;99.90
5689;DHT22;2869;50.432;8.680;2023-08-08T05:30:00;14.50;99.90
5689;DHT22;2869;50.432;8.680;2023-08-08T05:32:34;14.60;99.90
5689;DHT22;2869;50.432;8.680;2023-08-08T05:35:01;14.70;99.90
5689;DHT22;2869;50.432;8.680;2023-08-08T05:37:29;14.80;99.90
5689;DHT22;2869;50.432;8.680;2023-08-08T05:39:56;15.00;99.90
5689;DHT22;2869;50.432;8.680;2023-08-08T05:42:23;15.00;99.90
5689;DHT22;2869;50.432;8.680;2023-08-08T05:44:49;15.10;99.90
5689;DHT22;2869;50.432;8.680;2023-08-08T05:47:16;15.20;99.90
5689;DHT22;2869;50.432;8.680;2023-08-08T05:49:44;15.20;99.90
5689;DHT22;2869;50.432;8.680;2023-08-08T05:52:10;15.30;99.90
5689;DHT22;2869;50.432;8.680;2023-08-08T05:54:37;15.30;99.90
5689;DHT22;2869;50.432;8.680;2023-08-08T05:57:04;15.40;99.90
5689;DHT22;2869;50.432;8.680;2023-08-08T05:59:31;15.50;99.90
5689;DHT22;2869;50.432;8.680;2023-08-08T06:01:58;15.60;99.90
5689;DHT22;2869;50.432;8.680;2023-08-08T06:04:25;15.70;99.90
5689;DHT22;2869;50.432;8.680;2023-08-08T06:06:53;15.70;99.90
5689;DHT22;2869;50.432;8.680;2023-08-08T06:09:19;15.70;99.90
5689;DHT22;2869;50.432;8.680;2023-08-08T06:11:46;15.80;99.90
5689;DHT22;2869;50.432;8.680;2023-08-08T06:14:13;15.90;99.90
5689;DHT22;2869;50.432;8.680;2023-08-08T06:16:39;16.10;99.90
5689;DHT22;2869;50.432;8.680;2023-08-08T06:19:06;16.30;99.90
5689;DHT22;2869;50.432;8.680;2023-08-08T06:21:34;16.50;99.90
5689;DHT22;2869;50.432;8.680;2023-08-08T06:24:02;16.60;99.90
5689;DHT22;2869;50.432;8.680;2023-08-08T06:26:28;16.80;99.90
5689;DHT22;2869;50.432;8.680;2023-08-08T06:28:55;16.90;99.90
5689;DHT22;2869;50.432;8.680;2023-08-08T06:31:22;16.90;99.90
5689;DHT22;2869;50.432;8.680;2023-08-08T06:33:48;17.10;99.90
5689;DHT22;2869;50.432;8.680;2023-08-08T06:36:15;17.20;99.90
5689;DHT22;2869;50.432;8.680;2023-08-08T06:38:41;17.40;99.90
5689;DHT22;2869;50.432;8.680;2023-08-08T06:41:09;17.40;99.90
5689;DHT22;2869;50.432;8.680;2023-08-08T06:43:36;17.40;99.90
5689;DHT22;2869;50.432;8.680;2023-08-08T06:46:03;17.50;99.90
5689;DHT22;2869;50.432;8.680;2023-08-08T06:48:30;17.50;99.90
5689;DHT22;2869;50.432;8.680;2023-08-08T06:50:56;17.70;99.90
5689;DHT22;2869;50.432;8.680;2023-08-08T06:53:23;17.70;99.90
5689;DHT22;2869;50.432;8.680;2023-08-08T06:55:50;17.80;99.90
5689;DHT22;2869;50.432;8.680;2023-08-08T06:58:18;17.80;99.90
5689;DHT22;2869;50.432;8.680;2023-08-08T07:00:44;17.70;99.90
5689;DHT22;2869;50.432;8.680;2023-08-08T07:03:11;17.90;99.90
5689;DHT22;2869;50.432;8.680;2023-08-08T07:05:37;18.10;99.90
5689;DHT22;2869;50.432;8.680;2023-08-08T07:08:05;18.10;99.90
5689;DHT22;2869;50.432;8.680;2023-08-08T07:10:34;18.10;99.90
5689;DHT22;2869;50.432;8.680;2023-08-08T07:13:01;18.00;99.90
5689;DHT22;2869;50.432;8.680;2023-08-08T07:15:29;17.90;99.90
5689;DHT22;2869;50.432;8.680;2023-08-08T07:17:55;17.90;99.90
5689;DHT22;2869;50.432;8.680;2023-08-08T07:20:22;18.10;99.90
5689;DHT22;2869;50.432;8.680;2023-08-08T07:22:49;18.10;99.90
5689;DHT22;2869;50.432;8.680;2023-08-08T07:25:16;18.10;99.90
5689;DHT22;2869;50.432;8.680;2023-08-08T07:27:43;18.40;99.90
5689;DHT22;2869;50.432;8.680;2023-08-08T07:30:10;18.40;99.90
5689;DHT22;2869;50.432;8.680;2023-08-08T07:32:39;18.50;99.90
5689;DHT22;2869;50.432;8.680;2023-08-08T07:35:06;18.50;99.90
5689;DHT22;2869;50.432;8.680;2023-08-08T07:37:34;18.80;99.90
5689;DHT22;2869;50.432;8.680;2023-08-08T07:40:01;19.00;99.90
5689;DHT22;2869;50.432;8.680;2023-08-08T07:42:29;18.70;99.90
5689;DHT22;2869;50.432;8.680;2023-08-08T07:44:56;18.70;99.90
5689;DHT22;2869;50.432;8.680;2023-08-08T07:47:23;18.90;99.90
5689;DHT22;2869;50.432;8.680;2023-08-08T07:49:51;18.80;99.90
5689;DHT22;2869;50.432;8.680;2023-08-08T07:52:17;18.60;99.90
5689;DHT22;2869;50.432;8.680;2023-08-08T07:54:44;18.70;99.90
5689;DHT22;2869;50.432;8.680;2023-08-08T07:57:11;18.80;99.90
5689;DHT22;2869;50.432;8.680;2023-08-08T07:59:37;19.00;99.90
5689;DHT22;2869;50.432;8.680;2023-08-08T08:02:04;18.90;99.90
5689;DHT22;2869;50.432;8.680;2023-08-08T08:04:31;18.60;99.90
5689;DHT22;2869;50.432;8.680;2023-08-08T08:06:59;18.60;99.90
5689;DHT22;2869;50.432;8.680;2023-08-08T08:09:25;18.50;99.90
5689;DHT22;2869;50.432;8.680;2023-08-08T08:11:52;18.30;99.90
5689;DHT22;2869;50.432;8.680;2023-08-08T08:14:20;18.40;99.90
5689;DHT22;2869;50.432;8.680;2023-08-08T08:16:47;18.60;99.90
5689;DHT22;2869;50.432;8.680;2023-08-08T08:19:14;19.00;99.90
5689;DHT22;2869;50.432;8.680;2023-08-08T08:21:41;19.10;99.90
5689;DHT22;2869;50.432;8.680;2023-08-08T08:24:10;19.30;99.90
5689;DHT22;2869;50.432;8.680;2023-08-08T08:26:36;19.40;99.90
5689;DHT22;2869;50.432;8.680;2023-08-08T08:29:03;19.50;99.90
5689;DHT22;2869;50.432;8.680;2023-08-08T08:31:30;19.50;99.90
5689;DHT22;2869;50.432;8.680;2023-08-08T08:33:56;19.50;99.90
5689;DHT22;2869;50.432;8.680;2023-08-08T08:36:23;19.40;99.90
5689;DHT22;2869;50.432;8.680;2023-08-08T08:38:51;19.60;99.90
5689;DHT22;2869;50.432;8.680;2023-08-08T08:41:20;19.40;99.90
5689;DHT22;2869;50.432;8.680;2023-08-08T08:43:48;19.20;99.90
5689;DHT22;2869;50.432;8.680;2023-08-08T08:46:20;19.10;99.90
5689;DHT22;2869;50.432;8.680;2023-08-08T08:48:47;19.30;99.90
5689;DHT22;2869;50.432;8.680;2023-08-08T08:51:15;19.50;99.90
5689;DHT22;2869;50.432;8.680;2023-08-08T08:53:42;19.80;99.90
5689;DHT22;2869;50.432;8.680;2023-08-08T08:56:12;20.00;99.90
5689;DHT22;2869;50.432;8.680;2023-08-08T08:58:40;20.10;99.90
5689;DHT22;2869;50.432;8.680;2023-08-08T09:01:07;20.10;99.90
5689;DHT22;2869;50.432;8.680;2023-08-08T09:03:35;19.80;99.90
5689;DHT22;2869;50.432;8.680;2023-08-08T09:06:03;19.10;99.90
5689;DHT22;2869;50.432;8.680;2023-08-08T09:08:32;18.80;99.90
5689;DHT22;2869;50.432;8.680;2023-08-08T09:10:58;18.70;99.90
5689;DHT22;2869;50.432;8.680;2023-08-08T09:13:25;18.70;99.90
5689;DHT22;2869;50.432;8.680;2023-08-08T09:15:53;18.70;99.90
5689;DHT22;2869;50.432;8.680;2023-08-08T09:18:23;18.80;99.90
5689;DHT22;2869;50.432;8.680;2023-08-08T09:20:49;18.90;99.90
5689;DHT22;2869;50.432;8.680;2023-08-08T09:23:16;18.80;99.90
5689;DHT22;2869;50.432;8.680;2023-08-08T09:25:43;18.90;99.90
5689;DHT22;2869;50.432;8.680;2023-08-08T09:28:10;19.00;99.90
5689;DHT22;2869;50.432;8.680;2023-08-08T09:30:36;19.00;99.90
5689;DHT22;2869;50.432;8.680;2023-08-08T09:33:06;19.10;99.90
5689;DHT22;2869;50.432;8.680;2023-08-08T09:35:32;19.30;99.90
5689;DHT22;2869;50.432;8.680;2023-08-08T09:37:59;19.20;99.90
5689;DHT22;2869;50.432;8.680;2023-08-08T09:40:27;19.40;99.90
5689;DHT22;2869;50.432;8.680;2023-08-08T09:42:56;19.60;99.90
5689;DHT22;2869;50.432;8.680;2023-08-08T09:45:23;19.90;99.90
5689;DHT22;2869;50.432;8.680;2023-08-08T09:47:50;20.10;99.90
5689;DHT22;2869;50.432;8.680;2023-08-08T09:50:19;20.40;99.90
5689;DHT22;2869;50.432;8.680;2023-08-08T09:52:46;20.40;99.90
5689;DHT22;2869;50.432;8.680;2023-08-08T09:55:14;20.40;99.90
5689;DHT22;2869;50.432;8.680;2023-08-08T09:57:41;20.50;99.90
5689;DHT22;2869;50.432;8.680;2023-08-08T10:00:09;20.60;99.90
5689;DHT22;2869;50.432;8.680;2023-08-08T10:02:42;20.30;99.90
5689;DHT22;2869;50.432;8.680;2023-08-08T10:05:10;20.10;99.90
5689;DHT22;2869;50.432;8.680;2023-08-08T10:07:39;20.30;99.90
5689;DHT22;2869;50.432;8.680;2023-08-08T10:10:08;20.50;99.90
5689;DHT22;2869;50.432;8.680;2023-08-08T10:12:36;20.30;99.90
5689;DHT22;2869;50.432;8.680;2023-08-08T10:15:08;20.40;99.90
5689;DHT22;2869;50.432;8.680;2023-08-08T10:17:36;20.30;99.90
5689;DHT22;2869;50.432;8.680;2023-08-08T10:20:04;20.20;99.90
5689;DHT22;2869;50.432;8.680;2023-08-08T10:22:41;20.10;99.90
5689;DHT22;2869;50.432;8.680;2023-08-08T10:25:08;20.10;99.90
5689;DHT22;2869;50.432;8.680;2023-08-08T10:27:36;19.60;99.90
5689;DHT22;2869;50.432;8.680;2023-08-08T10:30:06;19.30;99.90
5689;DHT22;2869;50.432;8.680;2023-08-08T10:32:39;19.30;99.90
5689;DHT22;2869;50.432;8.680;2023-08-08T10:35:06;19.40;99.90
5689;DHT22;2869;50.432;8.680;2023-08-08T10:37:33;19.30;99.90
5689;DHT22;2869;50.432;8.680;2023-08-08T10:40:02;19.20;99.90
5689;DHT22;2869;50.432;8.680;2023-08-08T10:42:31;19.30;99.90
5689;DHT22;2869;50.432;8.680;2023-08-08T10:44:59;19.30;99.90
5689;DHT22;2869;50.432;8.680;2023-08-08T10:47:30;19.60;99.90
5689;DHT22;2869;50.432;8.680;2023-08-08T10:49:58;19.30;99.90
5689;DHT22;2869;50.432;8.680;2023-08-08T10:52:25;19.40;99.90
5689;DHT22;2869;50.432;8.680;2023-08-08T10:54:52;19.60;99.90
5689;DHT22;2869;50.432;8.680;2023-08-08T10:57:24;19.70;99.90
5689;DHT22;2869;50.432;8.680;2023-08-08T10:59:51;19.70;99.90
5689;DHT22;2869;50.432;8.680;2023-08-08T11:02:19;19.80;99.90
5689;DHT22;2869;50.432;8.680;2023-08-08T11:04:46;19.70;99.90
5689;DHT22;2869;50.432;8.680;2023-08-08T11:07:14;19.60;99.90
5689;DHT22;2869;50.432;8.680;2023-08-08T11:09:42;19.70;99.90
5689;DHT22;2869;50.432;8.680;2023-08-08T11:12:13;19.70;99.90
5689;DHT22;2869;50.432;8.680;2023-08-08T11:14:41;19.60;99.90
5689;DHT22;2869;50.432;8.680;2023-08-08T11:17:10;19.70;99.90
5689;DHT22;2869;50.432;8.680;2023-08-08T11:19:41;19.90;99.90
5689;DHT22;2869;50.432;8.680;2023-08-08T11:22:10;20.00;99.90
5689;DHT22;2869;50.432;8.680;2023-08-08T11:24:37;20.20;99.90
5689;DHT22;2869;50.432;8.680;2023-08-08T11:27:04;20.20;99.90
5689;DHT22;2869;50.432;8.680;2023-08-08T11:29:31;20.20;99.90
5689;DHT22;2869;50.432;8.680;2023-08-08T11:32:00;20.30;99.90
5689;DHT22;2869;50.432;8.680;2023-08-08T11:34:30;20.30;99.90
5689;DHT22;2869;50.432;8.680;2023-08-08T11:36:57;20.40;99.90
5689;DHT22;2869;50.432;8.680;2023-08-08T11:39:25;20.50;99.90
5689;DHT22;2869;50.432;8.680;2023-08-08T11:41:53;20.70;99.90
5689;DHT22;2869;50.432;8.680;2023-08-08T11:44:22;20.50;99.90
5689;DHT22;2869;50.432;8.680;2023-08-08T11:46:52;20.80;99.90
5689;DHT22;2869;50.432;8.680;2023-08-08T11:49:20;21.30;99.90
5689;DHT22;2869;50.432;8.680;2023-08-08T11:51:46;21.20;99.90
5689;DHT22;2869;50.432;8.680;2023-08-08T11:54:13;21.10;99.90
5689;DHT22;2869;50.432;8.680;2023-08-08T11:56:40;20.90;99.90
5689;DHT22;2869;50.432;8.680;2023-08-08T11:59:06;20.90;99.90
5689;DHT22;2869;50.432;8.680;2023-08-08T12:01:35;21.10;99.90
5689;DHT22;2869;50.432;8.680;2023-08-08T12:04:07;21.40;99.90
5689;DHT22;2869;50.432;8.680;2023-08-08T12:06:38;21.40;99.90
5689;DHT22;2869;50.432;8.680;2023-08-08T12:09:05;21.40;99.90
5689;DHT22;2869;50.432;8.680;2023-08-08T12:11:34;21.80;99.90
5689;DHT22;2869;50.432;8.680;2023-08-08T12:14:02;21.80;99.90
5689;DHT22;2869;50.432;8.680;2023-08-08T12:16:30;22.00;99.90
5689;DHT22;2869;50.432;8.680;2023-08-08T12:18:57;22.30;99.90
5689;DHT22;2869;50.432;8.680;2023-08-08T12:21:23;22.40;99.90
5689;DHT22;2869;50.432;8.680;2023-08-08T12:23:52;22.50;99.90
5689;DHT22;2869;50.432;8.680;2023-08-08T12:26:19;21.90;99.90
5689;DHT22;2869;50.432;8.680;2023-08-08T12:28:46;21.70;99.90
5689;DHT22;2869;50.432;8.680;2023-08-08T12:31:12;21.40;99.90
5689;DHT22;2869;50.432;8.680;2023-08-08T12:33:41;21.30;99.90
5689;DHT22;2869;50.432;8.680;2023-08-08T12:36:08;21.20;99.90
5689;DHT22;2869;50.432;8.680;2023-08-08T12:38:35;20.90;99.90
5689;DHT22;2869;50.432;8.680;2023-08-08T12:41:03;20.70;99.90
5689;DHT22;2869;50.432;8.680;2023-08-08T12:43:29;20.40;99.90
5689;DHT22;2869;50.432;8.680;2023-08-08T12:45:56;20.20;99.90
5689;DHT22;2869;50.432;8.680;2023-08-08T12:48:23;20.20;99.90
5689;DHT22;2869;50.432;8.680;2023-08-08T12:50:49;20.20;99.90
5689;DHT22;2869;50.432;8.680;2023-08-08T12:53:16;20.20;99.90
5689;DHT22;2869;50.432;8.680;2023-08-08T12:55:43;20.30;99.90
5689;DHT22;2869;50.432;8.680;2023-08-08T12:58:11;20.50;99.90
5689;DHT22;2869;50.432;8.680;2023-08-08T13:00:37;20.80;99.90
5689;DHT22;2869;50.432;8.680;2023-08-08T13:03:04;20.80;99.90
5689;DHT22;2869;50.432;8.680;2023-08-08T13:05:31;21.00;99.90
5689;DHT22;2869;50.432;8.680;2023-08-08T13:07:58;21.20;99.90
5689;DHT22;2869;50.432;8.680;2023-08-08T13:10:24;21.30;99.90
5689;DHT22;2869;50.432;8.680;2023-08-08T13:12:51;21.10;99.90
5689;DHT22;2869;50.432;8.680;2023-08-08T13:15:19;20.80;99.90
5689;DHT22;2869;50.432;8.680;2023-08-08T13:17:45;20.80;99.90
5689;DHT22;2869;50.432;8.680;2023-08-08T13:20:12;20.70;99.90
5689;DHT22;2869;50.432;8.680;2023-08-08T13:22:39;20.50;99.90
5689;DHT22;2869;50.432;8.680;2023-08-08T13:25:08;20.40;99.90
5689;DHT22;2869;50.432;8.680;2023-08-08T13:27:35;20.20;99.90
5689;DHT22;2869;50.432;8.680;2023-08-08T13:30:02;20.00;99.90
5689;DHT22;2869;50.432;8.680;2023-08-08T13:32:30;20.10;99.90
5689;DHT22;2869;50.432;8.680;2023-08-08T13:34:57;20.00;99.90
5689;DHT22;2869;50.432;8.680;2023-08-08T13:37:24;20.10;99.90
5689;DHT22;2869;50.432;8.680;2023-08-08T13:39:51;20.00;99.90
5689;DHT22;2869;50.432;8.680;2023-08-08T13:42:17;20.10;99.90
5689;DHT22;2869;50.432;8.680;2023-08-08T13:44:44;20.20;99.90
5689;DHT22;2869;50.432;8.680;2023-08-08T13:47:11;20.20;99.90
5689;DHT22;2869;50.432;8.680;2023-08-08T13:49:39;20.10;99.90
5689;DHT22;2869;50.432;8.680;2023-08-08T13:52:07;19.80;99.90
5689;DHT22;2869;50.432;8.680;2023-08-08T13:54:33;19.60;99.90
5689;DHT22;2869;50.432;8.680;2023-08-08T13:57:00;19.60;99.90
5689;DHT22;2869;50.432;8.680;2023-08-08T13:59:27;19.40;99.90
5689;DHT22;2869;50.432;8.680;2023-08-08T14:01:53;19.40;99.90
5689;DHT22;2869;50.432;8.680;2023-08-08T14:04:20;19.40;99.90
5689;DHT22;2869;50.432;8.680;2023-08-08T14:06:48;19.40;99.90
5689;DHT22;2869;50.432;8.680;2023-08-08T14:09:14;19.40;99.90
5689;DHT22;2869;50.432;8.680;2023-08-08T14:11:41;19.40;99.90
5689;DHT22;2869;50.432;8.680;2023-08-08T14:14:08;19.50;99.90
5689;DHT22;2869;50.432;8.680;2023-08-08T14:16:34;19.50;99.90
5689;DHT22;2869;50.432;8.680;2023-08-08T14:19:01;19.40;99.90
5689;DHT22;2869;50.432;8.680;2023-08-08T14:21:28;19.30;99.90
5689;DHT22;2869;50.432;8.680;2023-08-08T14:23:56;19.30;99.90
5689;DHT22;2869;50.432;8.680;2023-08-08T14:26:22;19.20;99.90
5689;DHT22;2869;50.432;8.680;2023-08-08T14:28:49;19.10;99.90
5689;DHT22;2869;50.432;8.680;2023-08-08T14:31:16;19.00;99.90
5689;DHT22;2869;50.432;8.680;2023-08-08T14:33:42;19.10;99.90
5689;DHT22;2869;50.432;8.680;2023-08-08T14:36:09;19.10;99.90
5689;DHT22;2869;50.432;8.680;2023-08-08T14:38:37;19.10;99.90
5689;DHT22;2869;50.432;8.680;2023-08-08T14:41:05;19.20;99.90
5689;DHT22;2869;50.432;8.680;2023-08-08T14:43:31;19.10;99.90
5689;DHT22;2869;50.432;8.680;2023-08-08T14:45:58;19.10;99.90
5689;DHT22;2869;50.432;8.680;2023-08-08T14:48:25;19.00;99.90
5689;DHT22;2869;50.432;8.680;2023-08-08T14:50:52;19.00;99.90
5689;DHT22;2869;50.432;8.680;2023-08-08T14:53:19;18.90;99.90
5689;DHT22;2869;50.432;8.680;2023-08-08T14:55:45;19.00;99.90
5689;DHT22;2869;50.432;8.680;2023-08-08T14:58:15;19.00;99.90
5689;DHT22;2869;50.432;8.680;2023-08-08T15:00:41;19.10;99.90
5689;DHT22;2869;50.432;8.680;2023-08-08T15:03:08;19.00;99.90
5689;DHT22;2869;50.432;8.680;2023-08-08T15:05:35;19.00;99.90
5689;DHT22;2869;50.432;8.680;2023-08-08T15:08:02;18.90;99.90
5689;DHT22;2869;50.432;8.680;2023-08-08T15:10:29;18.90;99.90
5689;DHT22;2869;50.432;8.680;2023-08-08T15:12:56;18.80;99.90
5689;DHT22;2869;50.432;8.680;2023-08-08T15:15:24;18.70;99.90
5689;DHT22;2869;50.432;8.680;2023-08-08T15:17:53;18.60;99.90
5689;DHT22;2869;50.432;8.680;2023-08-08T15:20:19;18.50;99.90
5689;DHT22;2869;50.432;8.680;2023-08-08T15:22:46;18.40;99.90
5689;DHT22;2869;50.432;8.680;2023-08-08T15:25:13;18.40;99.90
5689;DHT22;2869;50.432;8.680;2023-08-08T15:27:39;18.40;99.90
5689;DHT22;2869;50.432;8.680;2023-08-08T15:30:07;18.50;99.90
5689;DHT22;2869;50.432;8.680;2023-08-08T15:32:35;18.50;99.90
5689;DHT22;2869;50.432;8.680;2023-08-08T15:35:02;18.50;99.90
5689;DHT22;2869;50.432;8.680;2023-08-08T15:37:28;18.50;99.90
5689;DHT22;2869;50.432;8.680;2023-08-08T15:39:55;18.60;99.90
5689;DHT22;2869;50.432;8.680;2023-08-08T15:42:24;18.60;99.90
5689;DHT22;2869;50.432;8.680;2023-08-08T15:44:51;18.60;99.90
5689;DHT22;2869;50.432;8.680;2023-08-08T15:47:17;18.60;99.90
5689;DHT22;2869;50.432;8.680;2023-08-08T15:49:45;18.60;99.90
5689;DHT22;2869;50.432;8.680;2023-08-08T15:52:12;18.60;99.90
5689;DHT22;2869;50.432;8.680;2023-08-08T15:54:38;18.60;99.90
5689;DHT22;2869;50.432;8.680;2023-08-08T15:57:05;18.50;99.90
5689;DHT22;2869;50.432;8.680;2023-08-08T15:59:32;18.50;99.90
5689;DHT22;2869;50.432;8.680;2023-08-08T16:01:58;18.50;99.90